createdAt,value
2023-02-22T00:00:36.527Z,26.50
2023-02-22T00:03:03.950Z,26.70
2023-02-22T00:05:31.530Z,24.94
2023-02-22T00:07:58.451Z,26.25
2023-02-22T00:10:26.092Z,26.24
2023-02-22T00:12:55.399Z,25.37
2023-02-22T00:15:27.312Z,24.23
2023-02-22T00:17:54.841Z,24.89
2023-02-22T00:20:23.328Z,24.36
2023-02-22T00:22:54.021Z,23.64
2023-02-22T00:25:23.579Z,23.85
2023-02-22T00:27:52.730Z,23.56
2023-02-22T00:30:26.584Z,23.14
2023-02-22T00:32:56.553Z,23.47
2023-02-22T00:35:26.119Z,23.82
2023-02-22T00:37:56.730Z,23.77
2023-02-22T00:40:26.906Z,22.93
2023-02-22T00:42:53.984Z,23.73
2023-02-22T00:45:23.933Z,22.92
2023-02-22T00:47:51.418Z,22.74
2023-02-22T00:50:19.244Z,23.69
2023-02-22T00:52:45.847Z,22.82
2023-02-22T00:55:22.166Z,22.91
2023-02-22T00:57:49.870Z,21.97
2023-02-22T01:00:21.029Z,21.52
2023-02-22T01:02:50.740Z,21.38
2023-02-22T01:05:24.278Z,21.79
2023-02-22T01:07:50.862Z,21.44
2023-02-22T01:10:20.970Z,22.86
2023-02-22T01:12:49.950Z,21.76
2023-02-22T01:15:21.808Z,21.63
2023-02-22T01:17:50.943Z,21.26
2023-02-22T01:20:18.672Z,22.23
2023-02-22T01:22:47.951Z,22.02
2023-02-22T01:25:21.825Z,21.81
2023-02-22T01:27:50.205Z,22.32
2023-02-22T01:30:21.749Z,22.47
2023-02-22T01:32:51.054Z,22.02
2023-02-22T01:35:21.338Z,23.01
2023-02-22T01:37:48.104Z,22.79
2023-02-22T01:40:21.723Z,23.24
2023-02-22T01:42:52.783Z,22.74
2023-02-22T01:45:32.538Z,22.33
2023-02-22T01:48:14.962Z,22.08
2023-02-22T01:50:52.815Z,22.90
2023-02-22T01:53:23.666Z,23.22
2023-02-22T01:55:53.717Z,22.91
2023-02-22T01:58:24.439Z,22.27
2023-02-22T02:00:51.485Z,21.52
2023-02-22T02:03:23.606Z,22.40
2023-02-22T02:05:52.957Z,22.26
2023-02-22T02:08:32.295Z,22.42
2023-02-22T02:11:01.644Z,21.97
2023-02-22T02:13:28.637Z,22.20
2023-02-22T02:15:56.222Z,22.86
2023-02-22T02:18:26.298Z,22.92
2023-02-22T02:21:21.460Z,22.88
2023-02-22T02:24:32.830Z,23.24
2023-02-22T02:27:11.797Z,23.13
2023-02-22T02:30:36.234Z,22.99
2023-02-22T02:33:34.142Z,24.79
2023-02-22T02:36:24.349Z,23.87
2023-02-22T02:39:03.962Z,24.46
2023-02-22T02:41:39.123Z,25.26
2023-02-22T02:44:15.816Z,26.27
2023-02-22T02:46:56.209Z,26.08
2023-02-22T02:49:31.663Z,27.13
2023-02-22T02:51:59.985Z,25.85
2023-02-22T02:54:27.541Z,25.96
2023-02-22T02:56:57.749Z,26.27
2023-02-22T02:59:34.240Z,26.74
2023-02-22T03:02:19.251Z,27.54
2023-02-22T03:05:02.612Z,26.92
2023-02-22T03:07:50.606Z,28.50
2023-02-22T03:10:37.727Z,29.27
2023-02-22T03:13:30.040Z,28.20
2023-02-22T03:16:19.886Z,30.47
2023-02-22T03:18:50.363Z,29.60
2023-02-22T03:21:24.327Z,30.53
2023-02-22T03:23:56.889Z,29.78
2023-02-22T03:26:35.013Z,29.51
2023-02-22T03:29:06.314Z,31.31
2023-02-22T03:31:42.609Z,30.20
2023-02-22T03:34:21.324Z,29.31
2023-02-22T03:37:02.576Z,30.32
2023-02-22T03:39:31.238Z,30.17
2023-02-22T03:42:06.828Z,30.88
2023-02-22T03:44:40.134Z,30.83
2023-02-22T03:47:12.956Z,30.04
2023-02-22T03:49:53.645Z,30.91
2023-02-22T03:52:23.433Z,30.13
2023-02-22T03:54:54.676Z,30.75
2023-02-22T03:57:28.401Z,31.13
2023-02-22T03:59:55.602Z,31.18
2023-02-22T04:02:23.754Z,32.67
2023-02-22T04:04:50.385Z,31.14
2023-02-22T04:07:17.561Z,31.06
2023-02-22T04:09:44.258Z,32.05
2023-02-22T04:12:10.890Z,31.96
2023-02-22T04:14:37.475Z,31.92
2023-02-22T04:17:04.057Z,33.04
2023-02-22T04:19:30.583Z,31.91
2023-02-22T04:21:57.093Z,32.83
2023-02-22T04:24:23.724Z,31.95
2023-02-22T04:26:50.260Z,32.56
2023-02-22T04:29:16.809Z,32.38
2023-02-22T04:31:43.471Z,32.73
2023-02-22T04:34:10.017Z,32.41
2023-02-22T04:36:36.591Z,31.86
2023-02-22T04:39:03.901Z,31.30
2023-02-22T04:41:31.495Z,31.83
2023-02-22T04:43:58.098Z,31.72
2023-02-22T04:46:24.639Z,31.61
2023-02-22T04:48:51.175Z,33.11
2023-02-22T04:51:18.294Z,32.09
2023-02-22T04:53:45.035Z,31.55
2023-02-22T04:56:11.743Z,30.85
2023-02-22T04:58:38.339Z,31.32
2023-02-22T05:01:05.088Z,29.61
2023-02-22T05:03:31.774Z,29.69
2023-02-22T05:05:58.462Z,31.38
2023-02-22T05:08:25.067Z,31.51
2023-02-22T05:10:51.689Z,30.23
2023-02-22T05:13:19.244Z,31.79
2023-02-22T05:15:45.987Z,31.60
2023-02-22T05:18:12.521Z,31.41
2023-02-22T05:20:39.234Z,32.21
2023-02-22T05:23:06.280Z,32.01
2023-02-22T05:25:33.529Z,32.66
2023-02-22T05:28:05.250Z,31.54
2023-02-22T05:30:35.149Z,32.38
2023-02-22T05:33:02.600Z,32.41
2023-02-22T05:35:29.630Z,33.54
2023-02-22T05:37:57.578Z,34.14
2023-02-22T05:40:26.273Z,33.83
2023-02-22T05:42:53.737Z,34.92
2023-02-22T05:45:23.541Z,34.63
2023-02-22T05:47:50.972Z,35.16
2023-02-22T05:50:19.709Z,35.51
2023-02-22T05:52:48.740Z,34.96
2023-02-22T05:55:19.029Z,36.52
2023-02-22T05:57:46.243Z,37.40
2023-02-22T06:00:31.765Z,38.24
2023-02-22T06:03:08.014Z,36.72
2023-02-22T06:05:35.086Z,36.93
2023-02-22T06:08:03.185Z,38.09
2023-02-22T06:10:29.783Z,38.25
2023-02-22T06:12:57.581Z,39.34
2023-02-22T06:15:26.068Z,38.07
2023-02-22T06:17:54.457Z,38.39
2023-02-22T06:20:22.934Z,38.41
2023-02-22T06:22:51.208Z,36.58
2023-02-22T06:25:20.485Z,39.16
2023-02-22T06:27:47.060Z,39.53
2023-02-22T06:30:16.263Z,38.87
2023-02-22T06:32:42.893Z,39.34
2023-02-22T06:35:09.507Z,38.70
2023-02-22T06:37:36.165Z,39.97
2023-02-22T06:40:05.781Z,39.94
2023-02-22T06:42:32.962Z,39.22
2023-02-22T06:44:59.806Z,39.09
2023-02-22T06:47:26.420Z,37.61
2023-02-22T06:49:54.535Z,39.11
2023-02-22T06:52:21.651Z,37.63
2023-02-22T06:54:48.842Z,39.17
2023-02-22T06:57:15.725Z,36.61
2023-02-22T06:59:42.402Z,37.40
2023-02-22T07:02:11.601Z,37.70
2023-02-22T07:04:38.625Z,38.13
2023-02-22T07:07:05.897Z,38.84
2023-02-22T07:09:32.600Z,38.14
2023-02-22T07:11:59.156Z,39.23
2023-02-22T07:14:25.767Z,40.57
2023-02-22T07:16:52.324Z,41.51
2023-02-22T07:19:18.888Z,40.76
2023-02-22T07:21:47.854Z,42.47
2023-02-22T07:24:14.533Z,40.19
2023-02-22T07:26:42.421Z,39.38
2023-02-22T07:29:11.175Z,38.19
2023-02-22T07:31:39.214Z,37.66
2023-02-22T07:34:06.613Z,38.49
2023-02-22T07:36:33.250Z,38.45
2023-02-22T07:38:59.924Z,39.02
2023-02-22T07:41:26.548Z,38.40
2023-02-22T07:43:53.134Z,40.23
2023-02-22T07:46:19.686Z,39.43
2023-02-22T07:48:46.600Z,38.30
2023-02-22T07:51:16.359Z,37.78
2023-02-22T07:53:43.474Z,36.62
2023-02-22T07:56:10.268Z,35.45
2023-02-22T07:58:37.522Z,35.83
2023-02-22T08:01:08.730Z,36.84
2023-02-22T08:03:36.739Z,35.38
2023-02-22T08:06:05.874Z,32.85
2023-02-22T08:08:32.678Z,34.38
2023-02-22T08:10:59.265Z,34.50
2023-02-22T08:13:25.885Z,34.99
2023-02-22T08:15:53.857Z,35.60
2023-02-22T08:18:22.255Z,34.71
2023-02-22T08:20:51.827Z,34.43
2023-02-22T08:23:20.899Z,33.42
2023-02-22T08:25:47.614Z,33.34
2023-02-22T08:28:18.061Z,33.95
2023-02-22T08:30:47.245Z,34.30
2023-02-22T08:33:19.128Z,33.15
2023-02-22T08:35:49.542Z,33.08
2023-02-22T08:38:28.882Z,33.34
2023-02-22T08:40:56.295Z,33.96
2023-02-22T08:43:23.447Z,33.08
2023-02-22T08:45:51.767Z,34.49
2023-02-22T08:48:19.604Z,34.21
2023-02-22T08:50:46.695Z,32.15
2023-02-22T08:53:14.841Z,32.23
2023-02-22T08:55:42.255Z,32.71
2023-02-22T08:58:09.416Z,31.99
2023-02-22T09:00:39.081Z,31.26
2023-02-22T09:03:13.078Z,31.21
2023-02-22T09:05:40.895Z,29.58
2023-02-22T09:08:07.585Z,30.49
2023-02-22T09:10:35.765Z,31.04
2023-02-22T09:13:03.945Z,30.62
2023-02-22T09:15:31.539Z,30.97
2023-02-22T09:17:59.026Z,30.08
2023-02-22T09:20:26.619Z,30.45
2023-02-22T09:22:54.021Z,30.75
2023-02-22T09:25:21.958Z,30.99
2023-02-22T09:27:51.179Z,31.53
2023-02-22T09:30:34.566Z,31.94
2023-02-22T09:33:05.841Z,32.70
2023-02-22T09:35:36.132Z,32.11
2023-02-22T09:38:06.215Z,32.96
2023-02-22T09:40:40.874Z,32.12
2023-02-22T09:43:32.759Z,31.55
2023-02-22T09:46:13.345Z,31.28
2023-02-22T09:49:15.387Z,29.99
2023-02-22T09:51:55.714Z,29.41
2023-02-22T09:54:54.669Z,28.89
2023-02-22T09:57:40.550Z,28.48
2023-02-22T10:00:20.125Z,27.45
2023-02-22T10:03:18.248Z,27.17
2023-02-22T10:06:03.769Z,27.74
2023-02-22T10:08:36.153Z,27.14
2023-02-22T10:11:34.820Z,27.67
2023-02-22T10:14:16.333Z,27.79
2023-02-22T10:17:07.697Z,28.73
2023-02-22T10:19:53.714Z,28.47
2023-02-22T10:22:33.130Z,28.81
2023-02-22T10:25:09.551Z,28.40
2023-02-22T10:27:45.030Z,28.17
2023-02-22T10:30:26.696Z,28.40
2023-02-22T10:33:24.027Z,29.50
2023-02-22T10:35:53.618Z,29.12
2023-02-22T10:38:27.587Z,28.53
2023-02-22T10:41:09.028Z,27.91
2023-02-22T10:43:44.012Z,28.54
2023-02-22T10:46:21.479Z,28.52
2023-02-22T10:48:52.576Z,28.26
2023-02-22T10:51:19.170Z,29.11
2023-02-22T10:54:24.098Z,28.89
2023-02-22T10:56:55.585Z,28.95
2023-02-22T10:59:33.653Z,28.42
2023-02-22T11:02:08.477Z,29.88
2023-02-22T11:04:53.053Z,28.95
2023-02-22T11:07:29.382Z,28.66
2023-02-22T11:10:05.385Z,28.23
2023-02-22T11:12:39.059Z,28.21
2023-02-22T11:15:18.806Z,28.50
2023-02-22T11:17:47.975Z,28.82
2023-02-22T11:20:25.519Z,28.66
2023-02-22T11:22:55.054Z,27.64
2023-02-22T11:25:27.093Z,28.46
2023-02-22T11:27:54.559Z,27.92
2023-02-22T11:30:31.859Z,28.28
2023-02-22T11:33:17.631Z,27.67
2023-02-22T11:35:57.071Z,27.62
2023-02-22T11:38:28.377Z,26.73
2023-02-22T11:41:15.523Z,27.41
2023-02-22T11:43:44.766Z,26.40
2023-02-22T11:46:29.183Z,27.12
2023-02-22T11:49:08.810Z,27.62
2023-02-22T11:51:53.582Z,27.27
2023-02-22T11:54:31.239Z,27.70
2023-02-22T11:57:30.230Z,28.39
2023-02-22T12:00:12.086Z,28.30
2023-02-22T12:03:40.302Z,28.31
2023-02-22T12:06:31.329Z,27.94
2023-02-22T12:09:16.574Z,27.77
2023-02-22T12:12:02.228Z,28.03
2023-02-22T12:14:55.487Z,28.50
2023-02-22T12:17:35.030Z,29.03
2023-02-22T12:20:21.300Z,27.51
2023-02-22T12:23:19.614Z,26.87
2023-02-22T12:26:04.362Z,27.28
2023-02-22T12:28:47.555Z,27.76
2023-02-22T12:31:39.583Z,27.57
2023-02-22T12:34:21.578Z,27.85
2023-02-22T12:37:06.857Z,27.12
2023-02-22T12:39:53.134Z,27.79
2023-02-22T12:42:30.085Z,28.89
2023-02-22T12:45:11.151Z,27.71
2023-02-22T12:47:49.544Z,27.94
2023-02-22T12:50:23.217Z,27.65
2023-02-22T12:53:04.759Z,27.39
2023-02-22T12:55:47.167Z,28.09
2023-02-22T12:58:45.258Z,27.82
2023-02-22T13:01:20.327Z,28.14
2023-02-22T13:03:49.122Z,27.37
2023-02-22T13:06:41.464Z,26.89
2023-02-22T13:09:31.648Z,27.40
2023-02-22T13:12:42.884Z,27.94
2023-02-22T13:15:41.882Z,27.69
2023-02-22T13:18:27.060Z,27.58
2023-02-22T13:21:19.075Z,27.89
2023-02-22T13:24:03.570Z,27.50
2023-02-22T13:26:51.362Z,27.24
2023-02-22T13:29:29.969Z,26.94
2023-02-22T13:32:41.404Z,27.20
2023-02-22T13:35:28.999Z,26.35
2023-02-22T13:38:01.454Z,27.15
2023-02-22T13:41:05.684Z,26.97
2023-02-22T13:43:59.695Z,27.48
2023-02-22T13:47:17.010Z,27.06
2023-02-22T13:50:21.057Z,27.64
2023-02-22T13:52:51.899Z,27.66
2023-02-22T13:55:28.086Z,26.68
2023-02-22T13:58:07.786Z,27.60
2023-02-22T14:00:45.282Z,27.77
2023-02-22T14:03:14.552Z,27.33
2023-02-22T14:05:50.224Z,27.02
2023-02-22T14:08:19.605Z,27.20
2023-02-22T14:10:55.352Z,26.84
2023-02-22T14:13:26.618Z,26.46
2023-02-22T14:16:05.043Z,26.98
2023-02-22T14:18:41.844Z,26.22
2023-02-22T14:21:10.972Z,25.73
2023-02-22T14:23:40.690Z,26.16
2023-02-22T14:26:12.685Z,25.84
2023-02-22T14:28:58.247Z,26.46
2023-02-22T14:31:36.821Z,25.79
2023-02-22T14:34:08.760Z,26.07
2023-02-22T14:36:35.345Z,26.24
2023-02-22T14:39:13.818Z,27.13
2023-02-22T14:41:49.265Z,26.32
2023-02-22T14:44:27.059Z,25.14
2023-02-22T14:47:02.406Z,25.23
2023-02-22T14:49:36.242Z,25.99
2023-02-22T14:52:17.418Z,26.16
2023-02-22T14:55:26.077Z,24.65
2023-02-22T14:58:18.676Z,24.54
2023-02-22T15:00:52.809Z,24.68
2023-02-22T15:03:37.044Z,24.39
2023-02-22T15:06:14.936Z,24.98
2023-02-22T15:08:48.448Z,24.64
2023-02-22T15:11:35.582Z,24.38
2023-02-22T15:14:02.504Z,23.56
2023-02-22T15:16:34.330Z,24.39
2023-02-22T15:19:07.712Z,23.38
2023-02-22T15:21:35.512Z,23.87
2023-02-22T15:24:07.642Z,24.47
2023-02-22T15:26:42.497Z,23.52
2023-02-22T15:29:21.017Z,23.68
2023-02-22T15:31:48.710Z,23.55
2023-02-22T15:34:15.438Z,23.69
2023-02-22T15:36:43.765Z,23.35
2023-02-22T15:39:33.223Z,24.18
2023-02-22T15:42:06.028Z,24.77
2023-02-22T15:44:37.381Z,24.48
2023-02-22T15:47:05.395Z,24.64
2023-02-22T15:49:37.639Z,25.08
2023-02-22T15:52:28.098Z,25.20
2023-02-22T15:54:54.681Z,25.13
2023-02-22T15:57:25.296Z,26.34
2023-02-22T15:59:57.122Z,25.04
2023-02-22T16:02:31.781Z,25.95
2023-02-22T16:05:02.997Z,26.15
2023-02-22T16:07:30.134Z,25.38
2023-02-22T16:09:57.459Z,26.33
2023-02-22T16:12:28.393Z,26.40
2023-02-22T16:14:56.246Z,25.43
2023-02-22T16:17:49.281Z,26.16
2023-02-22T16:20:22.056Z,26.75
2023-02-22T16:22:49.790Z,26.26
2023-02-22T16:25:19.453Z,25.82
2023-02-22T16:27:49.155Z,26.57
2023-02-22T16:30:24.940Z,26.26
2023-02-22T16:32:55.240Z,27.46
2023-02-22T16:35:28.303Z,27.88
2023-02-22T16:37:59.230Z,28.02
2023-02-22T16:40:32.291Z,28.60
2023-02-22T16:43:01.876Z,29.27
2023-02-22T16:45:28.635Z,29.91
2023-02-22T16:47:55.492Z,29.54
2023-02-22T16:50:23.880Z,29.50
2023-02-22T16:52:55.099Z,29.77
2023-02-22T16:55:22.638Z,28.70
2023-02-22T16:57:50.535Z,30.87
2023-02-22T17:00:31.464Z,28.88
2023-02-22T17:03:02.661Z,30.01
2023-02-22T17:05:30.209Z,30.03
2023-02-22T17:07:56.908Z,30.92
2023-02-22T17:10:23.678Z,30.48
2023-02-22T17:12:53.345Z,30.04
2023-02-22T17:15:29.354Z,30.47
2023-02-22T17:17:56.924Z,31.01
2023-02-22T17:20:30.455Z,30.76
2023-02-22T17:23:03.438Z,31.80
2023-02-22T17:25:36.583Z,32.67
2023-02-22T17:28:03.152Z,32.84
2023-02-22T17:30:31.251Z,33.09
2023-02-22T17:33:03.569Z,33.92
2023-02-22T17:35:35.078Z,35.22
2023-02-22T17:38:06.294Z,35.59
2023-02-22T17:40:38.041Z,36.84
2023-02-22T17:43:08.685Z,36.36
2023-02-22T17:45:38.698Z,35.77
2023-02-22T17:48:05.737Z,36.88
2023-02-22T17:50:32.558Z,37.56
2023-02-22T17:53:00.570Z,39.70
2023-02-22T17:55:27.733Z,42.51
2023-02-22T17:57:59.544Z,42.68
2023-02-22T18:00:33.951Z,45.35
2023-02-22T18:03:12.273Z,47.05
2023-02-22T18:05:46.124Z,45.92
2023-02-22T18:08:14.619Z,46.29
2023-02-22T18:10:42.825Z,49.67
2023-02-22T18:13:14.223Z,51.12
2023-02-22T18:15:40.834Z,51.03
2023-02-22T18:18:07.528Z,52.64
2023-02-22T18:20:38.215Z,52.23
2023-02-22T18:23:12.168Z,51.59
2023-02-22T18:25:40.083Z,52.90
2023-02-22T18:28:08.291Z,52.78
2023-02-22T18:30:37.751Z,51.87
2023-02-22T18:33:04.386Z,53.08
2023-02-22T18:35:31.221Z,52.27
2023-02-22T18:37:57.857Z,53.43
2023-02-22T18:40:24.549Z,52.61
2023-02-22T18:42:51.102Z,52.99
2023-02-22T18:45:18.121Z,53.77
2023-02-22T18:47:45.573Z,55.14
2023-02-22T18:50:14.015Z,54.45
2023-02-22T18:52:46.326Z,55.60
2023-02-22T18:55:18.598Z,55.39
2023-02-22T18:57:46.450Z,57.61
2023-02-22T19:00:19.110Z,58.86
2023-02-22T19:02:45.776Z,59.98
2023-02-22T19:05:17.326Z,58.54
2023-02-22T19:07:44.851Z,61.10
2023-02-22T19:10:11.582Z,60.00
2023-02-22T19:12:38.192Z,58.66
2023-02-22T19:15:05.000Z,61.97
2023-02-22T19:17:32.571Z,61.30
2023-02-22T19:19:59.172Z,61.74
2023-02-22T19:22:32.731Z,62.27
2023-02-22T19:25:01.104Z,62.50
2023-02-22T19:27:33.932Z,62.68
2023-02-22T19:30:00.716Z,62.30
2023-02-22T19:32:27.350Z,64.28
2023-02-22T19:35:01.983Z,64.89
2023-02-22T19:37:34.084Z,64.76
2023-02-22T19:40:09.613Z,65.54
2023-02-22T19:42:36.319Z,65.16
2023-02-22T19:45:02.975Z,65.18
2023-02-22T19:47:29.673Z,63.13
2023-02-22T19:49:59.234Z,62.78
2023-02-22T19:52:28.906Z,63.63
2023-02-22T19:54:55.584Z,64.19
2023-02-22T19:57:24.194Z,64.71
2023-02-22T19:59:51.260Z,63.36
2023-02-22T20:02:17.919Z,63.09
2023-02-22T20:04:44.649Z,63.24
2023-02-22T20:07:11.258Z,63.39
2023-02-22T20:09:39.772Z,62.32
2023-02-22T20:12:07.747Z,61.97
2023-02-22T20:14:35.180Z,63.42
2023-02-22T20:17:02.347Z,61.41
2023-02-22T20:19:29.758Z,60.53
2023-02-22T20:21:56.993Z,60.56
2023-02-22T20:24:24.727Z,60.12
2023-02-22T20:26:55.451Z,59.46
2023-02-22T20:29:29.312Z,59.52
2023-02-22T20:32:01.141Z,58.24
2023-02-22T20:34:33.278Z,57.30
2023-02-22T20:37:01.149Z,56.36
2023-02-22T20:39:28.178Z,57.96
2023-02-22T20:41:54.870Z,55.74
2023-02-22T20:44:21.800Z,57.59
2023-02-22T20:46:49.046Z,54.16
2023-02-22T20:49:19.320Z,55.53
2023-02-22T20:51:47.946Z,55.58
2023-02-22T20:54:15.957Z,55.85
2023-02-22T20:56:45.112Z,54.73
2023-02-22T20:59:18.458Z,55.62
2023-02-22T21:01:47.461Z,53.00
2023-02-22T21:04:14.007Z,55.87
2023-02-22T21:06:40.849Z,53.89
2023-02-22T21:09:13.886Z,53.60
2023-02-22T21:11:40.547Z,53.76
2023-02-22T21:14:07.282Z,51.37
2023-02-22T21:16:36.939Z,52.78
2023-02-22T21:19:07.514Z,54.71
2023-02-22T21:21:35.688Z,53.08
2023-02-22T21:24:02.358Z,55.45
2023-02-22T21:26:31.534Z,53.70
2023-02-22T21:29:00.763Z,51.76
2023-02-22T21:31:28.587Z,53.49
2023-02-22T21:33:57.414Z,53.34
2023-02-22T21:36:25.100Z,54.57
2023-02-22T21:38:55.562Z,53.47
2023-02-22T21:41:27.770Z,54.97
2023-02-22T21:43:56.481Z,54.15
2023-02-22T21:46:24.237Z,52.83
2023-02-22T21:48:50.903Z,53.35
2023-02-22T21:51:26.717Z,54.75
2023-02-22T21:53:54.580Z,49.88
2023-02-22T21:56:27.223Z,52.82
2023-02-22T21:59:00.001Z,53.24
2023-02-22T22:01:31.692Z,50.90
2023-02-22T22:04:00.135Z,50.99
2023-02-22T22:06:29.106Z,51.61
2023-02-22T22:08:56.769Z,51.92
2023-02-22T22:11:25.163Z,50.13
2023-02-22T22:13:57.698Z,51.43
2023-02-22T22:16:27.115Z,49.80
2023-02-22T22:18:54.217Z,49.28
2023-02-22T22:21:23.460Z,49.49
2023-02-22T22:23:54.395Z,47.63
2023-02-22T22:26:24.396Z,47.85
2023-02-22T22:28:54.550Z,47.84
2023-02-22T22:31:23.883Z,49.16
2023-02-22T22:33:50.784Z,48.58
2023-02-22T22:36:21.266Z,49.76
2023-02-22T22:38:48.871Z,46.97
2023-02-22T22:41:19.252Z,47.84
2023-02-22T22:43:46.351Z,49.16
2023-02-22T22:46:15.394Z,50.86
2023-02-22T22:48:43.219Z,49.04
2023-02-22T22:51:14.437Z,47.64
2023-02-22T22:53:43.847Z,48.35
2023-02-22T22:56:17.415Z,47.23
2023-02-22T22:58:49.913Z,49.18
2023-02-22T23:01:20.540Z,48.60
2023-02-22T23:03:54.827Z,46.83
2023-02-22T23:06:27.666Z,49.47
2023-02-22T23:08:59.892Z,47.86
2023-02-22T23:11:33.844Z,48.99
2023-02-22T23:14:04.638Z,49.87
2023-02-22T23:16:34.961Z,46.99
2023-02-22T23:19:01.515Z,45.73
2023-02-22T23:21:28.345Z,45.27
2023-02-22T23:23:58.185Z,45.60
2023-02-22T23:26:27.158Z,46.58
2023-02-22T23:28:59.125Z,45.28
2023-02-22T23:31:32.084Z,47.71
2023-02-22T23:33:59.566Z,47.05
2023-02-22T23:36:27.206Z,47.03
2023-02-22T23:38:54.265Z,46.02
2023-02-22T23:41:24.924Z,45.62
2023-02-22T23:43:51.724Z,42.79
2023-02-22T23:46:18.677Z,41.83
2023-02-22T23:48:51.607Z,42.89
2023-02-22T23:51:25.426Z,41.97
2023-02-22T23:53:55.614Z,41.85
2023-02-22T23:56:27.846Z,40.81
2023-02-22T23:58:57.175Z,40.05
